sensor_id;sensor_type;location;lat;lon;timestamp;P1;durP1;ratioP1;P2;durP2;ratioP2
7487;SDS011;3785;52.260;4.728;2022-12-07T00:00:15;2.40;;;0.77;;
7487;SDS011;3785;52.260;4.728;2022-12-07T00:03:37;1.70;;;0.77;;
7487;SDS011;3785;52.260;4.728;2022-12-07T00:06:58;1.92;;;0.98;;
7487;SDS011;3785;52.260;4.728;2022-12-07T00:10:19;1.88;;;1.08;;
7487;SDS011;3785;52.260;4.728;2022-12-07T00:13:39;2.13;;;0.60;;
7487;SDS011;3785;52.260;4.728;2022-12-07T00:17:00;1.48;;;0.60;;
7487;SDS011;3785;52.260;4.728;2022-12-07T00:20:21;1.90;;;1.00;;
7487;SDS011;3785;52.260;4.728;2022-12-07T00:23:42;4.75;;;0.73;;
7487;SDS011;3785;52.260;4.728;2022-12-07T00:27:04;1.67;;;0.60;;
7487;SDS011;3785;52.260;4.728;2022-12-07T00:30:24;3.20;;;0.60;;
7487;SDS011;3785;52.260;4.728;2022-12-07T00:33:45;2.53;;;0.80;;
7487;SDS011;3785;52.260;4.728;2022-12-07T00:37:06;2.95;;;0.98;;
7487;SDS011;3785;52.260;4.728;2022-12-07T00:40:26;2.10;;;0.95;;
7487;SDS011;3785;52.260;4.728;2022-12-07T00:43:49;5.13;;;2.35;;
7487;SDS011;3785;52.260;4.728;2022-12-07T00:47:10;4.25;;;2.85;;
7487;SDS011;3785;52.260;4.728;2022-12-07T00:50:30;5.13;;;1.50;;
7487;SDS011;3785;52.260;4.728;2022-12-07T00:53:51;3.03;;;1.30;;
7487;SDS011;3785;52.260;4.728;2022-12-07T00:57:12;3.28;;;1.30;;
7487;SDS011;3785;52.260;4.728;2022-12-07T01:00:32;5.30;;;1.00;;
7487;SDS011;3785;52.260;4.728;2022-12-07T01:03:54;1.02;;;0.60;;
7487;SDS011;3785;52.260;4.728;2022-12-07T01:07:15;1.17;;;0.45;;
7487;SDS011;3785;52.260;4.728;2022-12-07T01:10:36;2.33;;;0.77;;
7487;SDS011;3785;52.260;4.728;2022-12-07T01:13:56;3.25;;;0.50;;
7487;SDS011;3785;52.260;4.728;2022-12-07T01:17:18;2.92;;;0.60;;
7487;SDS011;3785;52.260;4.728;2022-12-07T01:20:39;0.80;;;0.50;;
7487;SDS011;3785;52.260;4.728;2022-12-07T01:24:00;1.02;;;0.45;;
7487;SDS011;3785;52.260;4.728;2022-12-07T01:27:21;0.28;;;0.25;;
7487;SDS011;3785;52.260;4.728;2022-12-07T01:30:41;3.95;;;0.60;;
7487;SDS011;3785;52.260;4.728;2022-12-07T01:34:02;2.08;;;0.93;;
7487;SDS011;3785;52.260;4.728;2022-12-07T01:37:23;2.70;;;1.58;;
7487;SDS011;3785;52.260;4.728;2022-12-07T01:40:43;3.63;;;0.73;;
7487;SDS011;3785;52.260;4.728;2022-12-07T01:47:40;2.97;;;0.45;;
7487;SDS011;3785;52.260;4.728;2022-12-07T01:51:03;1.55;;;0.35;;
7487;SDS011;3785;52.260;4.728;2022-12-07T01:54:25;2.72;;;0.55;;
7487;SDS011;3785;52.260;4.728;2022-12-07T01:57:47;2.28;;;0.50;;
7487;SDS011;3785;52.260;4.728;2022-12-07T02:01:09;3.95;;;0.40;;
7487;SDS011;3785;52.260;4.728;2022-12-07T02:04:31;3.92;;;0.40;;
7487;SDS011;3785;52.260;4.728;2022-12-07T02:07:53;0.60;;;0.30;;
7487;SDS011;3785;52.260;4.728;2022-12-07T02:11:15;2.55;;;0.57;;
7487;SDS011;3785;52.260;4.728;2022-12-07T02:14:36;1.58;;;0.60;;
7487;SDS011;3785;52.260;4.728;2022-12-07T02:18:07;1.67;;;0.63;;
7487;SDS011;3785;52.260;4.728;2022-12-07T02:25:34;2.13;;;0.70;;
7487;SDS011;3785;52.260;4.728;2022-12-07T02:29:51;2.55;;;0.73;;
7487;SDS011;3785;52.260;4.728;2022-12-07T02:33:36;2.55;;;0.50;;
7487;SDS011;3785;52.260;4.728;2022-12-07T02:37:06;1.55;;;0.60;;
7487;SDS011;3785;52.260;4.728;2022-12-07T02:40:38;5.18;;;1.27;;
7487;SDS011;3785;52.260;4.728;2022-12-07T02:44:13;2.00;;;0.50;;
7487;SDS011;3785;52.260;4.728;2022-12-07T02:47:35;3.58;;;0.60;;
7487;SDS011;3785;52.260;4.728;2022-12-07T02:50:56;0.55;;;0.35;;
7487;SDS011;3785;52.260;4.728;2022-12-07T02:54:18;1.40;;;0.50;;
7487;SDS011;3785;52.260;4.728;2022-12-07T02:58:00;1.20;;;0.60;;
7487;SDS011;3785;52.260;4.728;2022-12-07T03:09:35;1.23;;;0.32;;
7487;SDS011;3785;52.260;4.728;2022-12-07T03:13:04;2.38;;;0.45;;
7487;SDS011;3785;52.260;4.728;2022-12-07T03:16:40;1.00;;;0.45;;
7487;SDS011;3785;52.260;4.728;2022-12-07T03:20:17;2.28;;;0.73;;
7487;SDS011;3785;52.260;4.728;2022-12-07T03:23:40;0.85;;;0.50;;
7487;SDS011;3785;52.260;4.728;2022-12-07T03:27:13;0.47;;;0.38;;
7487;SDS011;3785;52.260;4.728;2022-12-07T03:30:47;2.55;;;0.85;;
7487;SDS011;3785;52.260;4.728;2022-12-07T03:34:14;3.20;;;0.50;;
7487;SDS011;3785;52.260;4.728;2022-12-07T03:41:09;2.92;;;0.80;;
7487;SDS011;3785;52.260;4.728;2022-12-07T03:44:45;2.50;;;0.52;;
7487;SDS011;3785;52.260;4.728;2022-12-07T03:48:07;5.38;;;0.50;;
7487;SDS011;3785;52.260;4.728;2022-12-07T03:55:08;1.27;;;0.52;;
7487;SDS011;3785;52.260;4.728;2022-12-07T03:58:38;0.82;;;0.60;;
7487;SDS011;3785;52.260;4.728;2022-12-07T04:02:04;2.15;;;0.93;;
7487;SDS011;3785;52.260;4.728;2022-12-07T04:05:26;2.97;;;0.30;;
7487;SDS011;3785;52.260;4.728;2022-12-07T04:08:47;2.08;;;0.55;;
7487;SDS011;3785;52.260;4.728;2022-12-07T04:12:07;2.65;;;0.90;;
7487;SDS011;3785;52.260;4.728;2022-12-07T04:15:28;2.58;;;0.47;;
7487;SDS011;3785;52.260;4.728;2022-12-07T04:18:48;3.90;;;0.50;;
7487;SDS011;3785;52.260;4.728;2022-12-07T04:22:09;3.30;;;0.52;;
7487;SDS011;3785;52.260;4.728;2022-12-07T04:25:29;0.70;;;0.50;;
7487;SDS011;3785;52.260;4.728;2022-12-07T04:28:50;3.15;;;0.77;;
7487;SDS011;3785;52.260;4.728;2022-12-07T04:32:11;1.85;;;0.65;;
7487;SDS011;3785;52.260;4.728;2022-12-07T04:35:31;6.90;;;0.80;;
7487;SDS011;3785;52.260;4.728;2022-12-07T04:38:55;4.72;;;0.60;;
7487;SDS011;3785;52.260;4.728;2022-12-07T04:42:16;0.82;;;0.52;;
7487;SDS011;3785;52.260;4.728;2022-12-07T04:45:38;0.52;;;0.43;;
7487;SDS011;3785;52.260;4.728;2022-12-07T04:48:58;4.60;;;0.60;;
7487;SDS011;3785;52.260;4.728;2022-12-07T04:52:19;3.90;;;0.65;;
7487;SDS011;3785;52.260;4.728;2022-12-07T04:55:40;0.93;;;0.40;;
7487;SDS011;3785;52.260;4.728;2022-12-07T04:59:01;1.65;;;0.20;;
7487;SDS011;3785;52.260;4.728;2022-12-07T05:02:22;2.88;;;0.55;;
7487;SDS011;3785;52.260;4.728;2022-12-07T05:05:43;0.90;;;0.60;;
7487;SDS011;3785;52.260;4.728;2022-12-07T05:09:04;4.13;;;0.50;;
7487;SDS011;3785;52.260;4.728;2022-12-07T05:12:25;0.88;;;0.32;;
7487;SDS011;3785;52.260;4.728;2022-12-07T05:15:48;4.07;;;0.75;;
7487;SDS011;3785;52.260;4.728;2022-12-07T05:19:09;1.58;;;0.60;;
7487;SDS011;3785;52.260;4.728;2022-12-07T05:22:30;2.65;;;0.65;;
7487;SDS011;3785;52.260;4.728;2022-12-07T05:25:50;5.25;;;1.30;;
7487;SDS011;3785;52.260;4.728;2022-12-07T05:29:15;1.90;;;1.35;;
7487;SDS011;3785;52.260;4.728;2022-12-07T05:32:36;2.70;;;2.03;;
7487;SDS011;3785;52.260;4.728;2022-12-07T05:35:56;2.63;;;0.90;;
7487;SDS011;3785;52.260;4.728;2022-12-07T05:39:17;2.38;;;0.55;;
7487;SDS011;3785;52.260;4.728;2022-12-07T05:42:37;5.68;;;0.77;;
7487;SDS011;3785;52.260;4.728;2022-12-07T05:45:58;3.03;;;0.45;;
7487;SDS011;3785;52.260;4.728;2022-12-07T05:49:19;2.20;;;0.40;;
7487;SDS011;3785;52.260;4.728;2022-12-07T05:52:40;1.52;;;0.50;;
7487;SDS011;3785;52.260;4.728;2022-12-07T05:56:00;2.10;;;0.52;;
7487;SDS011;3785;52.260;4.728;2022-12-07T05:59:21;2.97;;;0.68;;
7487;SDS011;3785;52.260;4.728;2022-12-07T06:02:44;3.30;;;0.82;;
7487;SDS011;3785;52.260;4.728;2022-12-07T06:06:05;5.05;;;0.88;;
7487;SDS011;3785;52.260;4.728;2022-12-07T06:09:26;1.08;;;0.55;;
7487;SDS011;3785;52.260;4.728;2022-12-07T06:12:47;3.25;;;0.80;;
7487;SDS011;3785;52.260;4.728;2022-12-07T06:16:08;0.88;;;0.50;;
7487;SDS011;3785;52.260;4.728;2022-12-07T06:19:28;2.70;;;0.50;;
7487;SDS011;3785;52.260;4.728;2022-12-07T06:22:55;3.17;;;0.50;;
7487;SDS011;3785;52.260;4.728;2022-12-07T06:26:16;3.47;;;0.57;;
7487;SDS011;3785;52.260;4.728;2022-12-07T06:29:36;1.50;;;0.60;;
7487;SDS011;3785;52.260;4.728;2022-12-07T06:32:57;0.60;;;0.30;;
7487;SDS011;3785;52.260;4.728;2022-12-07T06:36:17;1.95;;;0.38;;
7487;SDS011;3785;52.260;4.728;2022-12-07T06:39:38;1.55;;;0.40;;
7487;SDS011;3785;52.260;4.728;2022-12-07T06:42:59;3.92;;;0.70;;
7487;SDS011;3785;52.260;4.728;2022-12-07T06:46:19;4.75;;;0.88;;
7487;SDS011;3785;52.260;4.728;2022-12-07T06:49:40;2.10;;;0.50;;
7487;SDS011;3785;52.260;4.728;2022-12-07T06:53:00;4.38;;;0.52;;
7487;SDS011;3785;52.260;4.728;2022-12-07T06:56:21;0.70;;;0.35;;
7487;SDS011;3785;52.260;4.728;2022-12-07T06:59:42;2.25;;;0.85;;
7487;SDS011;3785;52.260;4.728;2022-12-07T07:03:03;7.45;;;1.05;;
7487;SDS011;3785;52.260;4.728;2022-12-07T07:06:24;4.82;;;1.50;;
7487;SDS011;3785;52.260;4.728;2022-12-07T07:09:45;2.65;;;0.90;;
7487;SDS011;3785;52.260;4.728;2022-12-07T07:13:05;2.65;;;1.10;;
7487;SDS011;3785;52.260;4.728;2022-12-07T07:16:26;2.83;;;0.90;;
7487;SDS011;3785;52.260;4.728;2022-12-07T07:19:46;1.70;;;0.90;;
7487;SDS011;3785;52.260;4.728;2022-12-07T07:23:07;1.90;;;1.10;;
7487;SDS011;3785;52.260;4.728;2022-12-07T07:26:27;2.58;;;0.95;;
7487;SDS011;3785;52.260;4.728;2022-12-07T07:29:48;1.17;;;0.88;;
7487;SDS011;3785;52.260;4.728;2022-12-07T07:33:09;2.42;;;0.93;;
7487;SDS011;3785;52.260;4.728;2022-12-07T07:36:30;2.08;;;0.90;;
7487;SDS011;3785;52.260;4.728;2022-12-07T07:39:51;6.72;;;1.13;;
7487;SDS011;3785;52.260;4.728;2022-12-07T07:43:11;2.15;;;1.15;;
7487;SDS011;3785;52.260;4.728;2022-12-07T07:46:32;5.03;;;1.45;;
7487;SDS011;3785;52.260;4.728;2022-12-07T07:49:53;4.65;;;2.10;;
7487;SDS011;3785;52.260;4.728;2022-12-07T07:53:13;4.68;;;1.23;;
7487;SDS011;3785;52.260;4.728;2022-12-07T07:56:34;6.95;;;1.35;;
7487;SDS011;3785;52.260;4.728;2022-12-07T07:59:54;2.53;;;1.10;;
7487;SDS011;3785;52.260;4.728;2022-12-07T08:03:15;2.85;;;0.80;;
7487;SDS011;3785;52.260;4.728;2022-12-07T08:06:36;6.45;;;1.23;;
7487;SDS011;3785;52.260;4.728;2022-12-07T08:09:56;2.08;;;0.70;;
7487;SDS011;3785;52.260;4.728;2022-12-07T08:13:17;4.38;;;0.65;;
7487;SDS011;3785;52.260;4.728;2022-12-07T08:16:37;4.93;;;0.95;;
7487;SDS011;3785;52.260;4.728;2022-12-07T08:19:58;5.20;;;1.23;;
7487;SDS011;3785;52.260;4.728;2022-12-07T08:23:19;3.78;;;1.10;;
7487;SDS011;3785;52.260;4.728;2022-12-07T08:26:39;5.30;;;1.42;;
7487;SDS011;3785;52.260;4.728;2022-12-07T08:30:00;2.95;;;1.10;;
7487;SDS011;3785;52.260;4.728;2022-12-07T08:33:21;3.08;;;1.20;;
7487;SDS011;3785;52.260;4.728;2022-12-07T08:36:42;2.40;;;1.27;;
7487;SDS011;3785;52.260;4.728;2022-12-07T08:40:03;2.17;;;0.98;;
7487;SDS011;3785;52.260;4.728;2022-12-07T08:43:25;1.70;;;1.00;;
7487;SDS011;3785;52.260;4.728;2022-12-07T08:46:46;5.15;;;1.27;;
7487;SDS011;3785;52.260;4.728;2022-12-07T08:50:10;5.03;;;1.40;;
7487;SDS011;3785;52.260;4.728;2022-12-07T08:53:31;5.70;;;1.90;;
7487;SDS011;3785;52.260;4.728;2022-12-07T08:56:54;6.30;;;1.92;;
7487;SDS011;3785;52.260;4.728;2022-12-07T09:00:15;4.35;;;1.55;;
7487;SDS011;3785;52.260;4.728;2022-12-07T09:03:36;4.13;;;1.45;;
7487;SDS011;3785;52.260;4.728;2022-12-07T09:06:57;3.38;;;1.45;;
7487;SDS011;3785;52.260;4.728;2022-12-07T09:10:18;9.63;;;1.67;;
7487;SDS011;3785;52.260;4.728;2022-12-07T09:13:39;4.60;;;1.33;;
7487;SDS011;3785;52.260;4.728;2022-12-07T09:17:06;3.78;;;1.40;;
7487;SDS011;3785;52.260;4.728;2022-12-07T09:20:28;2.92;;;1.38;;
7487;SDS011;3785;52.260;4.728;2022-12-07T09:23:48;2.30;;;1.20;;
7487;SDS011;3785;52.260;4.728;2022-12-07T09:27:10;7.55;;;1.10;;
7487;SDS011;3785;52.260;4.728;2022-12-07T09:30:31;1.77;;;1.00;;
7487;SDS011;3785;52.260;4.728;2022-12-07T09:33:55;1.95;;;1.30;;
7487;SDS011;3785;52.260;4.728;2022-12-07T09:37:17;0.98;;;0.73;;
7487;SDS011;3785;52.260;4.728;2022-12-07T09:40:37;3.22;;;1.10;;
7487;SDS011;3785;52.260;4.728;2022-12-07T09:44:02;6.82;;;1.23;;
7487;SDS011;3785;52.260;4.728;2022-12-07T09:47:33;3.00;;;1.08;;
7487;SDS011;3785;52.260;4.728;2022-12-07T09:50:54;1.67;;;0.88;;
7487;SDS011;3785;52.260;4.728;2022-12-07T09:54:16;4.13;;;1.08;;
7487;SDS011;3785;52.260;4.728;2022-12-07T09:57:36;1.95;;;1.10;;
7487;SDS011;3785;52.260;4.728;2022-12-07T10:00:59;2.45;;;1.10;;
7487;SDS011;3785;52.260;4.728;2022-12-07T10:04:22;1.73;;;1.08;;
7487;SDS011;3785;52.260;4.728;2022-12-07T10:07:45;6.25;;;1.15;;
7487;SDS011;3785;52.260;4.728;2022-12-07T10:11:05;1.50;;;0.95;;
7487;SDS011;3785;52.260;4.728;2022-12-07T10:14:31;6.40;;;1.40;;
7487;SDS011;3785;52.260;4.728;2022-12-07T10:17:53;2.72;;;1.00;;
7487;SDS011;3785;52.260;4.728;2022-12-07T10:21:15;3.70;;;1.33;;
7487;SDS011;3785;52.260;4.728;2022-12-07T10:24:37;3.65;;;1.65;;
7487;SDS011;3785;52.260;4.728;2022-12-07T10:31:27;5.00;;;1.08;;
7487;SDS011;3785;52.260;4.728;2022-12-07T10:34:48;2.97;;;1.13;;
7487;SDS011;3785;52.260;4.728;2022-12-07T10:38:14;3.20;;;1.42;;
7487;SDS011;3785;52.260;4.728;2022-12-07T10:41:49;4.63;;;2.72;;
7487;SDS011;3785;52.260;4.728;2022-12-07T10:45:17;3.80;;;1.50;;
7487;SDS011;3785;52.260;4.728;2022-12-07T10:52:17;3.42;;;1.20;;
7487;SDS011;3785;52.260;4.728;2022-12-07T10:59:49;5.25;;;0.88;;
7487;SDS011;3785;52.260;4.728;2022-12-07T11:03:43;3.85;;;0.80;;
7487;SDS011;3785;52.260;4.728;2022-12-07T11:07:21;2.67;;;1.13;;
7487;SDS011;3785;52.260;4.728;2022-12-07T11:11:06;2.70;;;0.88;;
7487;SDS011;3785;52.260;4.728;2022-12-07T11:14:38;3.90;;;1.00;;
7487;SDS011;3785;52.260;4.728;2022-12-07T11:21:50;2.13;;;0.80;;
7487;SDS011;3785;52.260;4.728;2022-12-07T11:25:31;2.65;;;0.90;;
7487;SDS011;3785;52.260;4.728;2022-12-07T11:36:33;2.35;;;0.47;;
7487;SDS011;3785;52.260;4.728;2022-12-07T11:40:01;5.18;;;1.20;;
7487;SDS011;3785;52.260;4.728;2022-12-07T11:47:08;1.15;;;0.55;;
7487;SDS011;3785;52.260;4.728;2022-12-07T11:50:38;1.70;;;0.90;;
7487;SDS011;3785;52.260;4.728;2022-12-07T11:54:03;1.77;;;0.40;;
7487;SDS011;3785;52.260;4.728;2022-12-07T11:57:37;2.90;;;0.80;;
7487;SDS011;3785;52.260;4.728;2022-12-07T12:01:07;4.60;;;0.93;;
7487;SDS011;3785;52.260;4.728;2022-12-07T12:04:54;0.73;;;0.38;;
7487;SDS011;3785;52.260;4.728;2022-12-07T12:08:21;2.00;;;0.30;;
7487;SDS011;3785;52.260;4.728;2022-12-07T12:12:12;4.32;;;0.52;;
7487;SDS011;3785;52.260;4.728;2022-12-07T12:15:47;2.22;;;0.50;;
7487;SDS011;3785;52.260;4.728;2022-12-07T12:23:01;1.02;;;0.50;;
7487;SDS011;3785;52.260;4.728;2022-12-07T12:26:28;3.15;;;0.75;;
7487;SDS011;3785;52.260;4.728;2022-12-07T12:29:55;1.13;;;0.52;;
7487;SDS011;3785;52.260;4.728;2022-12-07T12:33:28;1.65;;;0.40;;
7487;SDS011;3785;52.260;4.728;2022-12-07T12:36:50;0.68;;;0.50;;
7487;SDS011;3785;52.260;4.728;2022-12-07T12:43:48;1.52;;;0.75;;
7487;SDS011;3785;52.260;4.728;2022-12-07T12:58:49;3.22;;;0.57;;
7487;SDS011;3785;52.260;4.728;2022-12-07T13:05:47;1.55;;;0.30;;
7487;SDS011;3785;52.260;4.728;2022-12-07T13:09:17;0.95;;;0.55;;
7487;SDS011;3785;52.260;4.728;2022-12-07T13:12:41;1.63;;;0.45;;
7487;SDS011;3785;52.260;4.728;2022-12-07T13:20:02;0.70;;;0.50;;
7487;SDS011;3785;52.260;4.728;2022-12-07T13:26:51;3.42;;;0.70;;
7487;SDS011;3785;52.260;4.728;2022-12-07T13:30:17;2.90;;;0.70;;
7487;SDS011;3785;52.260;4.728;2022-12-07T13:33:40;2.88;;;0.90;;
7487;SDS011;3785;52.260;4.728;2022-12-07T13:37:13;1.75;;;0.38;;
7487;SDS011;3785;52.260;4.728;2022-12-07T13:40:37;1.85;;;0.50;;
7487;SDS011;3785;52.260;4.728;2022-12-07T13:47:36;0.98;;;0.40;;
7487;SDS011;3785;52.260;4.728;2022-12-07T13:51:05;3.60;;;0.68;;
7487;SDS011;3785;52.260;4.728;2022-12-07T13:54:25;1.35;;;0.40;;
7487;SDS011;3785;52.260;4.728;2022-12-07T13:57:47;2.10;;;0.85;;
7487;SDS011;3785;52.260;4.728;2022-12-07T14:01:13;3.47;;;0.60;;
7487;SDS011;3785;52.260;4.728;2022-12-07T14:04:37;6.15;;;1.00;;
7487;SDS011;3785;52.260;4.728;2022-12-07T14:08:02;4.47;;;0.93;;
7487;SDS011;3785;52.260;4.728;2022-12-07T14:11:28;2.13;;;0.70;;
7487;SDS011;3785;52.260;4.728;2022-12-07T14:14:49;3.08;;;1.02;;
7487;SDS011;3785;52.260;4.728;2022-12-07T14:18:24;1.13;;;0.52;;
7487;SDS011;3785;52.260;4.728;2022-12-07T14:21:49;1.77;;;0.60;;
7487;SDS011;3785;52.260;4.728;2022-12-07T14:25:32;2.92;;;0.75;;
7487;SDS011;3785;52.260;4.728;2022-12-07T14:28:52;1.48;;;0.52;;
7487;SDS011;3785;52.260;4.728;2022-12-07T14:32:35;3.33;;;0.80;;
7487;SDS011;3785;52.260;4.728;2022-12-07T14:35:57;1.75;;;0.50;;
7487;SDS011;3785;52.260;4.728;2022-12-07T14:39:18;4.10;;;0.80;;
7487;SDS011;3785;52.260;4.728;2022-12-07T14:42:38;2.50;;;0.70;;
7487;SDS011;3785;52.260;4.728;2022-12-07T14:45:59;2.15;;;0.70;;
7487;SDS011;3785;52.260;4.728;2022-12-07T14:49:22;1.70;;;0.70;;
7487;SDS011;3785;52.260;4.728;2022-12-07T14:52:44;1.15;;;0.60;;
7487;SDS011;3785;52.260;4.728;2022-12-07T14:56:08;1.13;;;0.50;;
7487;SDS011;3785;52.260;4.728;2022-12-07T14:59:29;0.93;;;0.47;;
7487;SDS011;3785;52.260;4.728;2022-12-07T15:02:50;0.80;;;0.30;;
7487;SDS011;3785;52.260;4.728;2022-12-07T15:06:13;3.25;;;0.60;;
7487;SDS011;3785;52.260;4.728;2022-12-07T15:09:35;1.27;;;0.47;;
7487;SDS011;3785;52.260;4.728;2022-12-07T15:12:56;2.17;;;0.45;;
7487;SDS011;3785;52.260;4.728;2022-12-07T15:16:41;3.70;;;0.50;;
7487;SDS011;3785;52.260;4.728;2022-12-07T15:20:02;3.53;;;0.60;;
7487;SDS011;3785;52.260;4.728;2022-12-07T15:23:24;0.40;;;0.30;;
7487;SDS011;3785;52.260;4.728;2022-12-07T15:26:44;1.05;;;0.30;;
7487;SDS011;3785;52.260;4.728;2022-12-07T15:30:05;0.95;;;0.40;;
7487;SDS011;3785;52.260;4.728;2022-12-07T15:33:26;1.30;;;0.47;;
7487;SDS011;3785;52.260;4.728;2022-12-07T15:36:47;0.80;;;0.57;;
7487;SDS011;3785;52.260;4.728;2022-12-07T15:40:08;5.00;;;0.73;;
7487;SDS011;3785;52.260;4.728;2022-12-07T15:43:29;3.22;;;0.77;;
7487;SDS011;3785;52.260;4.728;2022-12-07T15:47:08;1.70;;;0.55;;
7487;SDS011;3785;52.260;4.728;2022-12-07T15:50:29;2.50;;;0.90;;
7487;SDS011;3785;52.260;4.728;2022-12-07T15:53:49;2.50;;;0.80;;
7487;SDS011;3785;52.260;4.728;2022-12-07T15:57:10;1.13;;;0.60;;
7487;SDS011;3785;52.260;4.728;2022-12-07T16:00:30;6.15;;;2.05;;
7487;SDS011;3785;52.260;4.728;2022-12-07T16:03:51;4.18;;;1.90;;
7487;SDS011;3785;52.260;4.728;2022-12-07T16:07:12;5.47;;;1.75;;
7487;SDS011;3785;52.260;4.728;2022-12-07T16:10:35;1.67;;;0.80;;
7487;SDS011;3785;52.260;4.728;2022-12-07T16:13:56;2.28;;;0.85;;
7487;SDS011;3785;52.260;4.728;2022-12-07T16:17:17;1.20;;;0.70;;
7487;SDS011;3785;52.260;4.728;2022-12-07T16:20:37;5.22;;;0.98;;
7487;SDS011;3785;52.260;4.728;2022-12-07T16:23:58;0.65;;;0.52;;
7487;SDS011;3785;52.260;4.728;2022-12-07T16:27:19;3.35;;;0.60;;
7487;SDS011;3785;52.260;4.728;2022-12-07T16:30:39;2.50;;;1.13;;
7487;SDS011;3785;52.260;4.728;2022-12-07T16:34:00;2.95;;;0.93;;
7487;SDS011;3785;52.260;4.728;2022-12-07T16:37:21;1.25;;;0.80;;
7487;SDS011;3785;52.260;4.728;2022-12-07T16:40:41;5.30;;;1.30;;
7487;SDS011;3785;52.260;4.728;2022-12-07T16:44:05;2.08;;;1.05;;
7487;SDS011;3785;52.260;4.728;2022-12-07T16:47:27;3.78;;;1.00;;
7487;SDS011;3785;52.260;4.728;2022-12-07T16:50:47;4.68;;;1.20;;
7487;SDS011;3785;52.260;4.728;2022-12-07T16:54:11;3.00;;;1.30;;
7487;SDS011;3785;52.260;4.728;2022-12-07T16:57:32;5.85;;;1.77;;
7487;SDS011;3785;52.260;4.728;2022-12-07T17:00:53;2.78;;;1.10;;
7487;SDS011;3785;52.260;4.728;2022-12-07T17:04:13;3.75;;;0.80;;
7487;SDS011;3785;52.260;4.728;2022-12-07T17:07:34;4.88;;;1.27;;
7487;SDS011;3785;52.260;4.728;2022-12-07T17:10:54;2.13;;;1.15;;
7487;SDS011;3785;52.260;4.728;2022-12-07T17:14:16;4.07;;;0.95;;
7487;SDS011;3785;52.260;4.728;2022-12-07T17:17:56;3.38;;;1.25;;
7487;SDS011;3785;52.260;4.728;2022-12-07T17:21:17;2.20;;;0.77;;
7487;SDS011;3785;52.260;4.728;2022-12-07T17:24:38;4.05;;;1.17;;
7487;SDS011;3785;52.260;4.728;2022-12-07T17:27:59;4.30;;;0.90;;
7487;SDS011;3785;52.260;4.728;2022-12-07T17:31:20;3.13;;;0.70;;
7487;SDS011;3785;52.260;4.728;2022-12-07T17:34:41;1.92;;;0.85;;
7487;SDS011;3785;52.260;4.728;2022-12-07T17:38:02;2.00;;;1.33;;
7487;SDS011;3785;52.260;4.728;2022-12-07T17:41:23;4.93;;;1.58;;
7487;SDS011;3785;52.260;4.728;2022-12-07T17:45:08;2.28;;;0.90;;
7487;SDS011;3785;52.260;4.728;2022-12-07T17:48:29;1.90;;;0.73;;
7487;SDS011;3785;52.260;4.728;2022-12-07T17:51:50;6.22;;;0.77;;
7487;SDS011;3785;52.260;4.728;2022-12-07T17:55:29;2.22;;;0.70;;
7487;SDS011;3785;52.260;4.728;2022-12-07T17:58:50;3.03;;;0.90;;
7487;SDS011;3785;52.260;4.728;2022-12-07T18:02:10;1.65;;;0.57;;
7487;SDS011;3785;52.260;4.728;2022-12-07T18:05:32;2.60;;;0.82;;
7487;SDS011;3785;52.260;4.728;2022-12-07T18:08:52;2.58;;;0.60;;
7487;SDS011;3785;52.260;4.728;2022-12-07T18:12:13;5.78;;;1.02;;
7487;SDS011;3785;52.260;4.728;2022-12-07T18:15:34;2.28;;;0.77;;
7487;SDS011;3785;52.260;4.728;2022-12-07T18:18:57;2.40;;;0.75;;
7487;SDS011;3785;52.260;4.728;2022-12-07T18:22:18;1.27;;;0.60;;
7487;SDS011;3785;52.260;4.728;2022-12-07T18:25:39;2.22;;;1.40;;
7487;SDS011;3785;52.260;4.728;2022-12-07T18:29:02;3.88;;;1.60;;
7487;SDS011;3785;52.260;4.728;2022-12-07T18:32:24;3.35;;;1.73;;
7487;SDS011;3785;52.260;4.728;2022-12-07T18:35:45;4.05;;;1.65;;
7487;SDS011;3785;52.260;4.728;2022-12-07T18:39:07;2.92;;;1.73;;
7487;SDS011;3785;52.260;4.728;2022-12-07T18:42:27;9.27;;;3.03;;
7487;SDS011;3785;52.260;4.728;2022-12-07T18:45:48;7.95;;;3.75;;
7487;SDS011;3785;52.260;4.728;2022-12-07T18:49:12;3.10;;;1.90;;
7487;SDS011;3785;52.260;4.728;2022-12-07T18:52:33;3.55;;;1.70;;
7487;SDS011;3785;52.260;4.728;2022-12-07T18:56:04;3.92;;;1.92;;
7487;SDS011;3785;52.260;4.728;2022-12-07T18:59:26;3.67;;;1.88;;
7487;SDS011;3785;52.260;4.728;2022-12-07T19:03:05;5.32;;;1.95;;
7487;SDS011;3785;52.260;4.728;2022-12-07T19:06:25;2.83;;;1.30;;
7487;SDS011;3785;52.260;4.728;2022-12-07T19:09:46;3.40;;;0.98;;
7487;SDS011;3785;52.260;4.728;2022-12-07T19:13:08;1.50;;;0.65;;
7487;SDS011;3785;52.260;4.728;2022-12-07T19:16:28;0.40;;;0.38;;
7487;SDS011;3785;52.260;4.728;2022-12-07T19:19:49;1.27;;;0.47;;
7487;SDS011;3785;52.260;4.728;2022-12-07T19:23:10;0.98;;;0.40;;
7487;SDS011;3785;52.260;4.728;2022-12-07T19:26:31;1.30;;;0.50;;
7487;SDS011;3785;52.260;4.728;2022-12-07T19:29:51;1.60;;;0.50;;
7487;SDS011;3785;52.260;4.728;2022-12-07T19:33:12;1.27;;;0.80;;
7487;SDS011;3785;52.260;4.728;2022-12-07T19:36:33;2.92;;;0.80;;
7487;SDS011;3785;52.260;4.728;2022-12-07T19:39:53;3.70;;;0.70;;
7487;SDS011;3785;52.260;4.728;2022-12-07T19:43:14;2.20;;;1.40;;
7487;SDS011;3785;52.260;4.728;2022-12-07T19:46:35;3.45;;;2.28;;
7487;SDS011;3785;52.260;4.728;2022-12-07T19:49:56;5.07;;;1.95;;
7487;SDS011;3785;52.260;4.728;2022-12-07T19:53:16;2.90;;;1.52;;
7487;SDS011;3785;52.260;4.728;2022-12-07T19:56:37;6.32;;;2.15;;
7487;SDS011;3785;52.260;4.728;2022-12-07T19:59:57;5.75;;;2.28;;
7487;SDS011;3785;52.260;4.728;2022-12-07T20:03:18;4.00;;;1.73;;
7487;SDS011;3785;52.260;4.728;2022-12-07T20:06:39;3.70;;;1.50;;
7487;SDS011;3785;52.260;4.728;2022-12-07T20:10:00;4.55;;;1.92;;
7487;SDS011;3785;52.260;4.728;2022-12-07T20:13:20;3.22;;;1.15;;
7487;SDS011;3785;52.260;4.728;2022-12-07T20:16:51;2.25;;;1.30;;
7487;SDS011;3785;52.260;4.728;2022-12-07T20:20:11;3.65;;;1.27;;
7487;SDS011;3785;52.260;4.728;2022-12-07T20:23:32;2.97;;;1.20;;
7487;SDS011;3785;52.260;4.728;2022-12-07T20:26:53;3.60;;;0.82;;
7487;SDS011;3785;52.260;4.728;2022-12-07T20:30:14;3.42;;;1.08;;
7487;SDS011;3785;52.260;4.728;2022-12-07T20:33:34;2.00;;;0.90;;
7487;SDS011;3785;52.260;4.728;2022-12-07T20:36:55;1.23;;;0.60;;
7487;SDS011;3785;52.260;4.728;2022-12-07T20:40:15;8.25;;;0.90;;
7487;SDS011;3785;52.260;4.728;2022-12-07T20:43:36;3.42;;;0.88;;
7487;SDS011;3785;52.260;4.728;2022-12-07T20:46:57;1.63;;;0.77;;
7487;SDS011;3785;52.260;4.728;2022-12-07T20:50:17;1.73;;;1.00;;
7487;SDS011;3785;52.260;4.728;2022-12-07T20:53:38;3.38;;;1.42;;
7487;SDS011;3785;52.260;4.728;2022-12-07T20:56:59;3.17;;;1.13;;
7487;SDS011;3785;52.260;4.728;2022-12-07T21:00:19;3.15;;;1.38;;
7487;SDS011;3785;52.260;4.728;2022-12-07T21:03:40;3.17;;;0.98;;
7487;SDS011;3785;52.260;4.728;2022-12-07T21:07:02;4.63;;;1.27;;
7487;SDS011;3785;52.260;4.728;2022-12-07T21:10:23;7.55;;;1.73;;
7487;SDS011;3785;52.260;4.728;2022-12-07T21:13:44;2.40;;;1.23;;
7487;SDS011;3785;52.260;4.728;2022-12-07T21:17:04;2.70;;;1.00;;
7487;SDS011;3785;52.260;4.728;2022-12-07T21:20:28;1.63;;;0.93;;
7487;SDS011;3785;52.260;4.728;2022-12-07T21:23:49;3.42;;;1.70;;
7487;SDS011;3785;52.260;4.728;2022-12-07T21:27:11;5.90;;;1.95;;
7487;SDS011;3785;52.260;4.728;2022-12-07T21:30:32;3.22;;;1.52;;
7487;SDS011;3785;52.260;4.728;2022-12-07T21:33:53;3.15;;;1.38;;
7487;SDS011;3785;52.260;4.728;2022-12-07T21:37:13;3.67;;;1.50;;
7487;SDS011;3785;52.260;4.728;2022-12-07T21:40:35;2.83;;;1.50;;
7487;SDS011;3785;52.260;4.728;2022-12-07T21:43:55;4.78;;;1.80;;
7487;SDS011;3785;52.260;4.728;2022-12-07T21:47:16;4.95;;;1.40;;
7487;SDS011;3785;52.260;4.728;2022-12-07T21:50:37;2.55;;;1.23;;
7487;SDS011;3785;52.260;4.728;2022-12-07T21:53:59;2.30;;;1.00;;
7487;SDS011;3785;52.260;4.728;2022-12-07T21:57:21;3.25;;;1.50;;
7487;SDS011;3785;52.260;4.728;2022-12-07T22:00:42;1.77;;;0.98;;
7487;SDS011;3785;52.260;4.728;2022-12-07T22:04:06;1.70;;;1.10;;
7487;SDS011;3785;52.260;4.728;2022-12-07T22:07:28;2.15;;;1.02;;
7487;SDS011;3785;52.260;4.728;2022-12-07T22:10:48;3.00;;;1.20;;
7487;SDS011;3785;52.260;4.728;2022-12-07T22:14:09;0.80;;;0.60;;
7487;SDS011;3785;52.260;4.728;2022-12-07T22:17:49;2.53;;;1.15;;
7487;SDS011;3785;52.260;4.728;2022-12-07T22:21:09;4.95;;;1.02;;
7487;SDS011;3785;52.260;4.728;2022-12-07T22:24:30;0.82;;;0.60;;